Terminal Aerodrome Forecast
Issued by NWS Mt. Holly, NJ

Home | Current Version | Previous Version | Text Only | Print | Product List | Glossary On
Versions: 1 2 3 4 5 6 7 8 9 10 11 12 13 14 15 16 17 18 19 20 21 22 23 24 25 26 27 28 29 30 31 32 33 34
957
FTUS41 KPHI 221142
TAFPHL
TAF
KPHL 221142Z 2212/2318 00000KT 1/2SM FG OVC003
      TEMPO 2212/2215 1/4SM FG OVC002
     FM221500 05007KT 2SM BR OVC005
     FM222200 05012KT 1SM -DZ BR OVC004
     FM230100 06018KT 3/4SM BR OVC002
     FM230400 05015G25KT 3SM BR OVC005
     FM231000 06022G30KT 4SM -RA BR OVC007=

USA.gov is the U.S. government's official web portal to all federal, state and local government web resources and services.